Raugust, Washington
Current Conditions -  °F | °C
As of 12:52 AM on Sunday 21 Dec 2014 (Local Time) from KMWH Reporting Station
Scattered Clouds Scattered Clouds  
Wind Chill: 34°   Ceiling: Unl
Heat Index: 40°   Visibility: 10mi
Dew Point: 39°   Wind: 8mph
Humidity: 97%   Direction: 200°SSW
Pressure: 29.47"   Gusts: NA
Location:  47.1758°N, 119.289°W
Report Text: KMWH 210852Z AUTO 20007KT 10SM FEW034 SCT070 04/04 A2947 RMK AO2 SLP984 T00440039 55008
Loading
Personal Weather Stations






























Interactive Weather Map New forecast layout! Learn more

10-Day Weather Forecast

Advertisements
Track Severe Weather on mobile